createdAt,value
2018-10-01T00:02:01.192Z,16.60
2018-10-01T00:04:29.172Z,18.00
2018-10-01T00:06:57.178Z,15.93
2018-10-01T00:09:25.212Z,16.13
2018-10-01T00:11:53.249Z,16.90
2018-10-01T00:14:21.285Z,16.20
2018-10-01T00:16:49.286Z,16.23
2018-10-01T00:19:22.766Z,17.60
2018-10-01T00:21:56.270Z,18.80
2018-10-01T00:24:24.285Z,17.20
2018-10-01T00:26:52.286Z,17.07
2018-10-01T00:29:20.288Z,18.47
2018-10-01T00:31:48.294Z,18.30
2018-10-01T00:34:16.902Z,19.13
2018-10-01T00:36:45.412Z,20.00
2018-10-01T00:39:13.403Z,24.60
2018-10-01T00:41:41.502Z,24.97
2018-10-01T00:44:09.490Z,27.00
2018-10-01T00:46:37.803Z,26.87
2018-10-01T00:49:06.174Z,27.40
2018-10-01T00:51:34.169Z,30.60
2018-10-01T00:54:02.164Z,31.17
2018-10-01T00:56:30.170Z,30.40
2018-10-01T00:58:58.172Z,28.50
2018-10-01T01:01:26.171Z,28.33
2018-10-01T01:03:54.161Z,28.43
2018-10-01T01:06:22.569Z,27.73
2018-10-01T01:08:50.557Z,29.33
2018-10-01T01:11:18.560Z,28.70
2018-10-01T01:13:47.198Z,29.03
2018-10-01T01:16:15.186Z,28.90
2018-10-01T01:18:43.181Z,28.50
2018-10-01T01:21:11.163Z,28.80
2018-10-01T01:23:39.145Z,27.73
2018-10-01T01:26:07.138Z,25.37
2018-10-01T01:28:35.140Z,28.03
2018-10-01T01:31:03.126Z,28.10
2018-10-01T01:33:31.122Z,27.57
2018-10-01T01:35:59.110Z,26.93
2018-10-01T01:38:27.107Z,25.17
2018-10-01T01:40:55.099Z,26.20
2018-10-01T01:43:23.086Z,27.53
2018-10-01T01:45:51.079Z,29.47
2018-10-01T01:48:19.087Z,29.07
2018-10-01T01:50:47.070Z,32.00
2018-10-01T01:53:15.062Z,32.00
2018-10-01T01:55:43.047Z,30.73
2018-10-01T01:58:11.042Z,33.10
2018-10-01T02:00:39.022Z,34.50
2018-10-01T02:03:07.006Z,32.30
2018-10-01T02:05:35.007Z,33.80
2018-10-01T02:08:03.015Z,35.97
2018-10-01T02:10:30.990Z,34.57
2018-10-01T02:12:58.986Z,36.53
2018-10-01T02:15:26.979Z,35.90
2018-10-01T02:17:54.966Z,37.27
2018-10-01T02:20:22.954Z,38.43
2018-10-01T02:22:50.947Z,35.90
2018-10-01T02:25:18.922Z,39.93
2018-10-01T02:27:46.978Z,40.10
2018-10-01T02:30:14.959Z,45.20
2018-10-01T02:32:42.938Z,43.10
2018-10-01T02:35:11.003Z,45.50
2018-10-01T02:37:38.994Z,44.63
2018-10-01T02:40:07.002Z,46.57
2018-10-01T02:42:35.099Z,49.43
2018-10-01T02:45:03.111Z,49.70
2018-10-01T02:47:31.112Z,50.90
2018-10-01T02:49:59.161Z,49.30
2018-10-01T02:52:32.765Z,49.93
2018-10-01T02:55:00.791Z,51.07
2018-10-01T02:57:28.787Z,55.03
2018-10-01T02:59:56.802Z,56.17
2018-10-01T03:02:24.807Z,54.30
2018-10-01T03:04:52.860Z,52.77
2018-10-01T03:07:20.943Z,59.07
2018-10-01T03:09:48.987Z,59.67
2018-10-01T03:12:17.020Z,55.93
2018-10-01T03:14:44.994Z,55.47
2018-10-01T03:17:13.003Z,56.50
2018-10-01T03:19:41.019Z,56.27
2018-10-01T03:22:09.021Z,51.23
2018-10-01T03:24:37.032Z,48.50
2018-10-01T03:27:05.054Z,50.00
2018-10-01T03:29:33.100Z,46.43
2018-10-01T03:32:01.108Z,47.60
2018-10-01T03:34:29.102Z,47.50
2018-10-01T03:36:57.097Z,47.77
2018-10-01T03:39:25.122Z,47.10
2018-10-01T03:41:53.168Z,47.73
2018-10-01T03:44:21.174Z,50.30
2018-10-01T03:46:49.232Z,52.13
2018-10-01T03:49:17.255Z,52.90
2018-10-01T03:51:45.300Z,51.17
2018-10-01T03:54:13.314Z,53.70
2018-10-01T03:56:41.375Z,55.03
2018-10-01T03:59:09.412Z,50.37
2018-10-01T04:01:37.431Z,49.37
2018-10-01T04:04:05.462Z,49.07
2018-10-01T04:06:33.475Z,50.83
2018-10-01T04:09:01.544Z,41.57
2018-10-01T04:11:29.536Z,43.13
2018-10-01T04:13:57.531Z,43.47
2018-10-01T04:16:25.550Z,44.10
2018-10-01T04:18:53.570Z,40.80
2018-10-01T04:21:21.683Z,40.63
2018-10-01T04:23:49.780Z,35.83
2018-10-01T04:26:17.815Z,33.80
2018-10-01T04:28:45.819Z,30.20
2018-10-01T04:31:13.832Z,28.77
2018-10-01T04:33:41.843Z,27.73
2018-10-01T04:36:09.863Z,27.90
2018-10-01T04:38:37.878Z,25.87
2018-10-01T04:41:06.216Z,24.70
2018-10-01T04:43:34.226Z,26.10
2018-10-01T04:46:02.251Z,25.43
2018-10-01T04:48:30.404Z,22.70
2018-10-01T04:50:58.399Z,23.33
2018-10-01T04:53:26.520Z,26.30
2018-10-01T04:55:54.527Z,24.13
2018-10-01T04:58:22.595Z,18.30
2018-10-01T05:00:50.531Z,17.73
2018-10-01T05:03:18.565Z,15.90
2018-10-01T05:05:46.606Z,15.47
2018-10-01T05:08:14.760Z,13.53
2018-10-01T05:10:42.775Z,12.43
2018-10-01T05:13:10.768Z,11.50
2018-10-01T05:15:38.794Z,9.73
2018-10-01T05:18:06.843Z,8.90
2018-10-01T05:20:34.888Z,9.47
2018-10-01T05:23:02.905Z,8.47
2018-10-01T05:25:30.943Z,8.57
2018-10-01T05:27:58.931Z,7.53
2018-10-01T05:30:26.929Z,7.90
2018-10-01T05:32:54.906Z,8.00
2018-10-01T05:35:22.941Z,9.83
2018-10-01T05:37:51.147Z,8.93
2018-10-01T05:40:19.164Z,10.00
2018-10-01T05:42:47.159Z,10.40
2018-10-01T05:45:15.190Z,12.47
2018-10-01T05:47:43.190Z,11.17
2018-10-01T05:50:11.236Z,10.90
2018-10-01T05:52:39.238Z,12.13
2018-10-01T05:55:07.323Z,15.47
2018-10-01T05:57:35.339Z,14.00
2018-10-01T06:00:03.430Z,12.37
2018-10-01T06:02:31.437Z,14.63
2018-10-01T06:04:59.490Z,15.07
2018-10-01T06:07:27.515Z,15.37
2018-10-01T06:09:55.560Z,15.27
2018-10-01T06:12:23.633Z,18.50
2018-10-01T06:14:51.627Z,19.70
2018-10-01T06:17:19.639Z,21.23
2018-10-01T06:19:47.685Z,23.70
2018-10-01T06:22:15.698Z,25.00
2018-10-01T06:24:43.693Z,26.93
2018-10-01T06:27:11.701Z,26.67
2018-10-01T06:29:39.710Z,30.60
2018-10-01T06:32:07.730Z,30.63
2018-10-01T06:34:35.745Z,33.70
2018-10-01T06:37:03.759Z,31.07
2018-10-01T06:39:31.804Z,34.87
2018-10-01T06:41:59.864Z,34.60
2018-10-01T06:44:27.810Z,36.37
2018-10-01T06:46:55.865Z,32.40
2018-10-01T06:49:23.871Z,34.83
2018-10-01T06:51:51.890Z,36.10
2018-10-01T06:54:20.115Z,34.27
2018-10-01T06:56:48.127Z,32.83
2018-10-01T06:59:16.130Z,30.67
2018-10-01T07:01:44.150Z,31.17
2018-10-01T07:04:12.199Z,31.30
2018-10-01T07:06:40.365Z,27.30
2018-10-01T07:09:09.189Z,26.10
2018-10-01T07:11:37.721Z,27.73
2018-10-01T07:14:05.845Z,24.10
2018-10-01T07:16:33.920Z,25.30
2018-10-01T07:19:01.974Z,25.80
2018-10-01T07:21:30.025Z,25.27
2018-10-01T07:24:04.460Z,23.67
2018-10-01T07:26:32.581Z,25.70
2018-10-01T07:29:00.870Z,23.50
2018-10-01T07:31:29.960Z,21.40
2018-10-01T07:33:58.007Z,20.90
2018-10-01T07:36:26.113Z,21.60
2018-10-01T07:38:54.419Z,19.17
2018-10-01T07:41:22.509Z,19.83
2018-10-01T07:43:50.647Z,20.20
2018-10-01T07:46:18.766Z,19.37
2018-10-01T07:48:46.724Z,20.43
2018-10-01T07:51:14.784Z,19.80
2018-10-01T07:53:42.822Z,19.73
2018-10-01T07:56:10.835Z,17.77
2018-10-01T07:58:38.871Z,16.57
2018-10-01T08:01:06.892Z,16.53
2018-10-01T08:03:34.922Z,17.63
2018-10-01T08:06:02.950Z,16.23
2018-10-01T08:08:30.985Z,14.77
2018-10-01T08:10:58.999Z,15.97
2018-10-01T08:13:27.068Z,15.03
2018-10-01T08:15:55.077Z,14.30
2018-10-01T08:18:23.136Z,15.70
2018-10-01T08:20:51.173Z,16.47
2018-10-01T08:23:19.199Z,15.93
2018-10-01T08:25:47.263Z,13.97
2018-10-01T08:28:15.278Z,14.03
2018-10-01T08:30:43.337Z,13.30
2018-10-01T08:33:11.359Z,13.77
2018-10-01T08:35:39.532Z,12.80
2018-10-01T08:38:07.593Z,13.50
2018-10-01T08:40:35.669Z,14.47
2018-10-01T08:43:03.817Z,17.13
2018-10-01T08:45:31.857Z,14.43
2018-10-01T08:47:59.900Z,12.97
2018-10-01T08:50:33.373Z,12.43
2018-10-01T08:53:06.041Z,13.43
2018-10-01T08:55:34.095Z,12.10
2018-10-01T08:58:02.112Z,12.07
2018-10-01T09:00:30.191Z,13.70
2018-10-01T09:02:58.204Z,13.67
2018-10-01T09:05:26.292Z,14.43
2018-10-01T09:07:54.283Z,13.90
2018-10-01T09:10:22.373Z,15.20
2018-10-01T09:12:50.404Z,16.27
2018-10-01T09:15:18.427Z,17.60
2018-10-01T09:17:46.441Z,19.70
2018-10-01T09:20:14.615Z,18.30
2018-10-01T09:22:42.487Z,17.20
2018-10-01T09:25:10.544Z,21.63
2018-10-01T09:27:38.567Z,21.40
2018-10-01T09:30:06.622Z,20.90
2018-10-01T09:32:34.764Z,23.90
2018-10-01T09:35:02.821Z,22.20
2018-10-01T09:37:30.777Z,23.40
2018-10-01T09:39:58.992Z,24.97
2018-10-01T09:42:27.035Z,26.00
2018-10-01T09:44:55.178Z,25.50
2018-10-01T09:47:23.176Z,28.57
2018-10-01T09:49:51.232Z,26.80
2018-10-01T09:52:19.302Z,23.63
2018-10-01T09:54:47.296Z,25.97
2018-10-01T09:57:15.472Z,26.73
2018-10-01T09:59:43.565Z,23.37
2018-10-01T10:02:11.652Z,20.70
2018-10-01T10:04:39.845Z,17.10
2018-10-01T10:07:07.925Z,18.27
2018-10-01T10:09:35.960Z,18.70
2018-10-01T10:12:03.975Z,17.73
2018-10-01T10:14:32.083Z,21.70
2018-10-01T10:17:00.092Z,22.27
2018-10-01T10:19:28.100Z,24.83
2018-10-01T10:21:56.227Z,25.93
2018-10-01T10:24:24.262Z,26.67
2018-10-01T10:26:52.330Z,25.50
2018-10-01T10:29:20.358Z,22.80
2018-10-01T10:31:48.399Z,23.07
2018-10-01T10:34:16.584Z,19.30
2018-10-01T10:36:44.509Z,19.37
2018-10-01T10:39:13.482Z,20.37
2018-10-01T10:41:42.114Z,18.00
2018-10-01T10:44:10.167Z,18.43
2018-10-01T10:46:38.173Z,17.60
2018-10-01T10:49:06.232Z,15.03
2018-10-01T10:51:34.399Z,16.43
2018-10-01T10:54:02.437Z,15.47
2018-10-01T10:56:30.689Z,15.20
2018-10-01T10:58:58.622Z,15.23
2018-10-01T11:01:26.677Z,14.67
2018-10-01T11:03:55.378Z,14.70
2018-10-01T11:06:23.454Z,16.47
2018-10-01T11:08:51.503Z,15.40
2018-10-01T11:11:19.503Z,16.33
2018-10-01T11:13:47.512Z,15.40
2018-10-01T11:16:15.731Z,15.20
2018-10-01T11:18:43.889Z,15.33
2018-10-01T11:21:13.907Z,13.40
2018-10-01T11:23:41.826Z,14.40
2018-10-01T11:26:10.024Z,14.97
2018-10-01T11:28:38.198Z,13.57
2018-10-01T11:31:06.123Z,14.23
2018-10-01T11:33:34.125Z,13.63
2018-10-01T11:36:02.153Z,13.60
2018-10-01T11:38:30.141Z,13.10
2018-10-01T11:40:58.191Z,15.43
2018-10-01T11:43:26.237Z,12.87
2018-10-01T11:45:54.276Z,13.97
2018-10-01T11:48:22.296Z,13.63
2018-10-01T11:50:50.325Z,15.07
2018-10-01T11:53:18.328Z,13.47
2018-10-01T11:55:46.327Z,14.57
2018-10-01T11:58:14.338Z,14.70
2018-10-01T12:00:42.332Z,13.40
2018-10-01T12:03:10.417Z,13.57
2018-10-01T12:05:38.498Z,14.27
2018-10-01T12:08:06.528Z,13.00
2018-10-01T12:10:34.736Z,13.67
2018-10-01T12:13:02.715Z,15.50
2018-10-01T12:15:30.754Z,13.97
2018-10-01T12:17:58.736Z,15.53
2018-10-01T12:20:26.721Z,15.60
2018-10-01T12:22:54.714Z,17.23
2018-10-01T12:25:22.748Z,15.70
2018-10-01T12:27:50.751Z,16.30
2018-10-01T12:30:18.738Z,16.13
2018-10-01T12:32:46.750Z,16.13
2018-10-01T12:35:14.819Z,13.73
2018-10-01T12:37:42.756Z,15.97
2018-10-01T12:40:10.787Z,13.97
2018-10-01T12:42:38.839Z,12.83
2018-10-01T12:45:07.346Z,14.83
2018-10-01T12:47:35.428Z,14.73
2018-10-01T12:50:03.414Z,14.83
2018-10-01T12:52:31.438Z,16.60
2018-10-01T12:54:59.477Z,17.07
2018-10-01T12:57:27.510Z,18.10
2018-10-01T12:59:55.446Z,18.67
2018-10-01T13:02:23.453Z,17.37
2018-10-01T13:04:51.605Z,18.00
2018-10-01T13:07:20.173Z,19.50
2018-10-01T13:09:48.170Z,19.63
2018-10-01T13:12:16.278Z,18.47
2018-10-01T13:14:44.220Z,19.27
2018-10-01T13:17:12.331Z,18.50
2018-10-01T13:19:40.339Z,19.10
2018-10-01T13:22:08.471Z,19.50
2018-10-01T13:24:36.533Z,19.63
2018-10-01T13:27:04.539Z,19.20
2018-10-01T13:29:32.577Z,19.90
2018-10-01T13:32:00.700Z,19.70
2018-10-01T13:34:28.667Z,19.20
2018-10-01T13:36:56.691Z,19.97
2018-10-01T13:39:24.731Z,19.33
2018-10-01T13:41:52.732Z,17.93
2018-10-01T13:44:20.802Z,17.80
2018-10-01T13:46:48.791Z,17.23
2018-10-01T13:49:16.821Z,17.90
2018-10-01T13:51:44.876Z,17.83
2018-10-01T13:54:12.926Z,18.50
2018-10-01T13:56:40.955Z,19.00
2018-10-01T13:59:08.969Z,20.20
2018-10-01T14:01:37.136Z,19.00
2018-10-01T14:04:05.942Z,20.87
2018-10-01T14:06:34.072Z,21.23
2018-10-01T14:09:02.160Z,21.90
2018-10-01T14:11:30.183Z,24.53
2018-10-01T14:13:58.437Z,24.60
2018-10-01T14:16:26.942Z,22.77
2018-10-01T14:18:55.095Z,21.60
2018-10-01T14:21:23.108Z,23.63
2018-10-01T14:23:51.172Z,22.13
2018-10-01T14:26:19.267Z,23.73
2018-10-01T14:28:47.456Z,26.20
2018-10-01T14:31:15.482Z,23.53
2018-10-01T14:33:43.607Z,22.23
2018-10-01T14:36:11.883Z,22.17
2018-10-01T14:38:39.915Z,23.60
2018-10-01T14:41:08.599Z,22.73
2018-10-01T14:43:36.782Z,23.63
2018-10-01T14:46:04.948Z,23.20
2018-10-01T14:48:33.068Z,21.40
2018-10-01T14:51:01.119Z,21.87
2018-10-01T14:53:29.135Z,22.57
2018-10-01T14:55:57.242Z,22.60
2018-10-01T14:58:25.286Z,21.87
2018-10-01T15:00:53.362Z,21.50
2018-10-01T15:03:21.564Z,22.20
2018-10-01T15:05:49.868Z,21.40
2018-10-01T15:08:18.212Z,22.50
2018-10-01T15:10:46.303Z,20.93
2018-10-01T15:13:14.335Z,22.73
2018-10-01T15:15:42.372Z,20.73
2018-10-01T15:18:10.607Z,22.40
2018-10-01T15:20:38.613Z,23.47
2018-10-01T15:23:06.716Z,22.97
2018-10-01T15:25:34.805Z,21.60
2018-10-01T15:28:02.861Z,23.70
2018-10-01T15:30:30.942Z,21.67
2018-10-01T15:32:59.033Z,24.07
2018-10-01T15:35:27.126Z,22.27
2018-10-01T15:37:55.067Z,21.07
2018-10-01T15:40:23.121Z,21.40
2018-10-01T15:42:51.185Z,23.10
2018-10-01T15:45:19.260Z,20.57
2018-10-01T15:47:47.334Z,22.17
2018-10-01T15:50:15.347Z,19.57
2018-10-01T15:52:43.364Z,21.20
2018-10-01T15:55:11.377Z,20.30
2018-10-01T15:57:39.387Z,20.70
2018-10-01T16:00:11.345Z,18.13
2018-10-01T16:02:39.381Z,19.40
2018-10-01T16:05:07.462Z,16.97
2018-10-01T16:07:35.619Z,19.00
2018-10-01T16:10:03.773Z,17.93
2018-10-01T16:12:31.820Z,19.10
2018-10-01T16:14:59.855Z,17.23
2018-10-01T16:17:27.899Z,17.83
2018-10-01T16:19:55.931Z,18.30
2018-10-01T16:27:30.894Z,20.10
2018-10-01T16:29:58.925Z,17.03
2018-10-01T16:32:26.946Z,17.83
2018-10-01T16:34:54.911Z,17.50
2018-10-01T16:37:22.900Z,16.40
2018-10-01T16:39:50.897Z,17.40
2018-10-01T16:42:18.936Z,16.73
2018-10-01T16:44:46.898Z,16.43
2018-10-01T16:47:14.903Z,16.70
2018-10-01T16:49:43.108Z,16.30
2018-10-01T16:52:11.108Z,16.03
2018-10-01T16:54:39.127Z,15.27
2018-10-01T16:57:07.168Z,17.07
2018-10-01T16:59:35.199Z,17.60
2018-10-01T17:02:03.250Z,16.63
2018-10-01T17:04:31.234Z,16.17
2018-10-01T17:06:59.279Z,15.83
2018-10-01T17:09:27.304Z,16.10
2018-10-01T17:11:55.345Z,15.20
2018-10-01T17:14:23.318Z,18.80
2018-10-01T17:16:51.713Z,14.73
2018-10-01T17:19:19.699Z,16.00
2018-10-01T17:21:47.713Z,15.03
2018-10-01T17:24:16.624Z,15.10
2018-10-01T17:26:44.635Z,14.57
2018-10-01T17:29:12.643Z,13.93
2018-10-01T17:31:40.781Z,15.20
2018-10-01T17:34:08.761Z,15.93
2018-10-01T17:36:36.852Z,15.20
2018-10-01T17:39:07.168Z,14.70
2018-10-01T17:41:35.171Z,15.03
2018-10-01T17:44:03.155Z,12.37
2018-10-01T17:46:31.270Z,13.00
2018-10-01T17:48:59.837Z,15.80
2018-10-01T17:51:27.842Z,13.90
2018-10-01T17:53:55.833Z,13.70
2018-10-01T17:56:23.963Z,11.70
2018-10-01T17:58:52.035Z,11.60
2018-10-01T18:01:20.113Z,13.33
2018-10-01T18:03:48.171Z,13.13
2018-10-01T18:06:16.333Z,14.10
2018-10-01T18:08:44.303Z,12.50
2018-10-01T18:11:12.380Z,12.60
2018-10-01T18:13:40.432Z,13.43
2018-10-01T18:16:08.504Z,15.17
2018-10-01T18:18:36.551Z,14.90
2018-10-01T18:21:04.923Z,14.60
2018-10-01T18:23:34.240Z,16.77
2018-10-01T18:26:02.619Z,15.50
2018-10-01T18:28:30.666Z,14.43
2018-10-01T18:30:58.740Z,15.33
2018-10-01T18:33:26.824Z,16.53
2018-10-01T18:35:54.856Z,17.00
2018-10-01T18:38:23.002Z,16.10
2018-10-01T18:40:51.138Z,17.50
2018-10-01T18:43:19.228Z,20.10
2018-10-01T18:45:47.272Z,19.07
2018-10-01T18:48:15.364Z,19.87
2018-10-01T18:50:43.393Z,20.37
2018-10-01T18:53:11.496Z,17.63
2018-10-01T18:55:39.919Z,18.90
2018-10-01T18:58:07.959Z,17.37
2018-10-01T19:00:36.027Z,16.47
2018-10-01T19:03:04.067Z,15.67
2018-10-01T19:05:33.022Z,16.63
2018-10-01T19:08:01.126Z,14.10
2018-10-01T19:10:29.265Z,15.90
2018-10-01T19:12:57.303Z,13.70
2018-10-01T19:15:25.462Z,13.40
2018-10-01T19:17:53.475Z,13.07
2018-10-01T19:20:21.712Z,12.27
2018-10-01T19:22:49.770Z,13.10
2018-10-01T19:25:17.754Z,12.43
2018-10-01T19:27:45.839Z,11.63
2018-10-01T19:30:13.903Z,14.10
2018-10-01T19:32:41.901Z,12.20
2018-10-01T19:35:09.951Z,10.10
2018-10-01T19:37:37.971Z,10.83
2018-10-01T19:40:05.994Z,11.33
2018-10-01T19:42:34.091Z,12.03
2018-10-01T19:45:02.240Z,11.57
2018-10-01T19:47:30.176Z,12.83
2018-10-01T19:49:58.223Z,13.23
2018-10-01T19:52:26.218Z,14.73
2018-10-01T19:54:54.215Z,16.30
2018-10-01T19:57:22.423Z,13.60
2018-10-01T19:59:50.369Z,14.73
2018-10-01T20:02:18.376Z,14.40
2018-10-01T20:04:46.438Z,13.53
2018-10-01T20:07:14.434Z,13.40
2018-10-01T20:09:44.383Z,14.30
2018-10-01T20:12:12.690Z,14.20
2018-10-01T20:14:40.955Z,13.13
2018-10-01T20:17:08.996Z,13.67
2018-10-01T20:19:37.015Z,13.83
2018-10-01T20:22:07.941Z,13.70
2018-10-01T20:24:35.991Z,14.80
2018-10-01T20:27:04.034Z,14.20
2018-10-01T20:29:32.119Z,14.73
2018-10-01T20:32:00.096Z,12.07
2018-10-01T20:34:28.039Z,12.80
2018-10-01T20:36:56.058Z,13.80
2018-10-01T20:39:24.134Z,13.37
2018-10-01T20:41:52.207Z,11.80
2018-10-01T20:44:20.212Z,13.00
2018-10-01T20:46:48.230Z,15.00
2018-10-01T20:49:16.516Z,13.80
2018-10-01T20:51:44.564Z,13.10
2018-10-01T20:54:12.574Z,14.40
2018-10-01T20:56:40.579Z,14.20
2018-10-01T20:59:08.645Z,13.77
2018-10-01T21:01:36.603Z,12.50
2018-10-01T21:04:04.672Z,11.50
2018-10-01T21:06:32.722Z,13.33
2018-10-01T21:09:00.749Z,14.33
2018-10-01T21:11:28.784Z,12.60
2018-10-01T21:13:56.774Z,13.10
2018-10-01T21:16:24.836Z,14.40
2018-10-01T21:18:52.833Z,15.17
2018-10-01T21:21:20.850Z,15.47
2018-10-01T21:23:48.855Z,16.90
2018-10-01T21:26:16.917Z,18.70
2018-10-01T21:28:44.962Z,17.50
2018-10-01T21:31:12.976Z,17.30
2018-10-01T21:33:40.998Z,18.67
2018-10-01T21:36:09.017Z,17.90
2018-10-01T21:38:40.087Z,16.77
2018-10-01T21:41:08.151Z,15.53
2018-10-01T21:43:36.113Z,14.80
2018-10-01T21:46:04.140Z,13.57
2018-10-01T21:48:32.148Z,12.43
2018-10-01T21:51:00.162Z,12.63
2018-10-01T21:53:28.163Z,14.07
2018-10-01T21:55:56.166Z,13.60
2018-10-01T21:58:24.178Z,14.50
2018-10-01T22:00:57.805Z,14.67
2018-10-01T22:03:25.814Z,15.37
2018-10-01T22:05:53.871Z,16.23
2018-10-01T22:08:21.881Z,15.60
2018-10-01T22:10:49.928Z,16.23
2018-10-01T22:13:17.975Z,16.53
2018-10-01T22:15:47.098Z,16.10
2018-10-01T22:18:16.975Z,15.73
2018-10-01T22:20:45.028Z,15.80
2018-10-01T22:23:13.413Z,15.80
2018-10-01T22:25:41.468Z,15.03
2018-10-01T22:28:09.816Z,14.57
2018-10-01T22:30:38.200Z,16.60
2018-10-01T22:33:06.214Z,15.93
2018-10-01T22:35:34.269Z,16.70
2018-10-01T22:38:02.286Z,15.83
2018-10-01T22:40:30.300Z,13.50
2018-10-01T22:42:58.327Z,15.60
2018-10-01T22:45:26.372Z,15.20
2018-10-01T22:47:54.395Z,13.27
2018-10-01T22:50:22.440Z,13.87
2018-10-01T22:52:50.526Z,13.00
2018-10-01T22:55:18.589Z,13.30
2018-10-01T22:57:46.644Z,13.47
2018-10-01T23:00:14.655Z,12.20
2018-10-01T23:02:42.708Z,14.20
2018-10-01T23:05:10.708Z,11.80
2018-10-01T23:07:38.738Z,11.10
2018-10-01T23:10:06.941Z,10.47
2018-10-01T23:12:35.149Z,9.77
2018-10-01T23:15:03.179Z,10.10
2018-10-01T23:17:31.232Z,9.30
2018-10-01T23:19:59.237Z,9.47
2018-10-01T23:22:27.254Z,9.83
2018-10-01T23:24:55.266Z,9.03
2018-10-01T23:27:23.283Z,8.40
2018-10-01T23:29:51.332Z,8.63
2018-10-01T23:32:19.373Z,8.43
2018-10-01T23:34:47.350Z,8.40
2018-10-01T23:37:15.359Z,8.00
2018-10-01T23:39:43.409Z,8.23
2018-10-01T23:42:11.476Z,8.00
2018-10-01T23:44:39.483Z,9.20
2018-10-01T23:47:07.501Z,8.50
2018-10-01T23:49:35.503Z,7.77
2018-10-01T23:52:03.526Z,7.60
2018-10-01T23:54:31.582Z,8.60
2018-10-01T23:56:59.571Z,7.83
2018-10-01T23:59:27.590Z,8.87
